createdAt,value
2019-02-16T00:02:20.824Z,8.33
2019-02-16T00:04:48.809Z,8.47
2019-02-16T00:07:16.973Z,6.97
2019-02-16T00:09:53.085Z,9.30
2019-02-16T00:12:21.121Z,6.50
2019-02-16T00:14:49.092Z,6.63
2019-02-16T00:17:16.960Z,7.33
2019-02-16T00:19:44.948Z,7.87
2019-02-16T00:22:13.006Z,8.80
2019-02-16T00:24:41.092Z,9.13
2019-02-16T00:27:12.008Z,9.83
2019-02-16T00:29:40.649Z,8.53
2019-02-16T00:32:08.608Z,6.90
2019-02-16T00:34:36.688Z,7.93
2019-02-16T00:37:04.723Z,7.13
2019-02-16T00:39:32.645Z,8.30
2019-02-16T00:42:00.630Z,7.50
2019-02-16T00:44:30.221Z,9.87
2019-02-16T00:46:58.324Z,9.37
2019-02-16T00:49:26.132Z,10.17
2019-02-16T00:51:53.984Z,9.13
2019-02-16T00:54:22.188Z,10.83
2019-02-16T00:56:50.155Z,7.53
2019-02-16T00:59:18.128Z,10.73
2019-02-16T01:01:45.968Z,9.20
2019-02-16T01:04:14.135Z,10.70
2019-02-16T01:06:42.080Z,9.83
2019-02-16T01:09:10.049Z,9.57
2019-02-16T01:11:38.087Z,10.63
2019-02-16T01:14:06.160Z,9.17
2019-02-16T01:16:34.204Z,8.67
2019-02-16T01:19:02.032Z,10.13
2019-02-16T01:21:29.791Z,10.17
2019-02-16T01:23:57.824Z,10.23
2019-02-16T01:26:25.705Z,13.93
2019-02-16T01:28:53.674Z,10.33
2019-02-16T01:31:21.735Z,9.33
2019-02-16T01:33:49.603Z,13.07
2019-02-16T01:36:17.567Z,15.77
2019-02-16T01:38:45.643Z,13.30
2019-02-16T01:41:13.716Z,10.90
2019-02-16T01:43:41.802Z,14.87
2019-02-16T01:46:09.896Z,14.03
2019-02-16T01:48:37.897Z,12.03
2019-02-16T01:51:05.828Z,12.67
2019-02-16T01:53:33.719Z,14.80
2019-02-16T01:56:01.664Z,12.43
2019-02-16T01:58:30.052Z,13.13
2019-02-16T02:00:57.980Z,13.60
2019-02-16T02:03:26.048Z,14.63
2019-02-16T02:05:54.123Z,14.17
2019-02-16T02:08:22.197Z,11.43
2019-02-16T02:10:50.299Z,12.83
2019-02-16T02:13:18.154Z,12.67
2019-02-16T02:15:46.004Z,14.67
2019-02-16T02:18:14.048Z,15.67
2019-02-16T02:20:42.001Z,10.77
2019-02-16T02:23:09.936Z,12.53
2019-02-16T02:25:38.068Z,14.13
2019-02-16T02:28:06.112Z,13.80
2019-02-16T02:30:34.084Z,14.10
2019-02-16T02:33:01.996Z,12.90
2019-02-16T02:35:30.020Z,12.90
2019-02-16T02:37:58.093Z,16.43
2019-02-16T02:40:26.196Z,14.33
2019-02-16T02:42:54.235Z,13.63
2019-02-16T02:45:22.327Z,13.97
2019-02-16T02:47:50.379Z,15.07
2019-02-16T02:50:18.459Z,14.30
2019-02-16T02:52:46.447Z,12.13
2019-02-16T02:55:14.299Z,13.13
2019-02-16T02:57:42.387Z,14.07
2019-02-16T03:00:10.440Z,13.27
2019-02-16T03:02:38.436Z,15.37
2019-02-16T03:05:06.774Z,14.90
2019-02-16T03:07:34.743Z,16.87
2019-02-16T03:10:02.632Z,17.13
2019-02-16T03:12:30.709Z,17.33
2019-02-16T03:14:58.550Z,15.37
2019-02-16T03:17:26.484Z,13.77
2019-02-16T03:19:54.347Z,13.37
2019-02-16T03:22:22.412Z,12.97
2019-02-16T03:24:50.488Z,14.93
2019-02-16T03:27:26.651Z,14.00
2019-02-16T03:30:03.466Z,13.77
2019-02-16T03:32:51.089Z,15.93
2019-02-16T03:35:53.795Z,14.33
2019-02-16T03:38:47.276Z,13.93
2019-02-16T03:41:15.316Z,13.47
2019-02-16T03:43:43.381Z,16.73
2019-02-16T03:46:11.272Z,15.13
2019-02-16T03:48:39.263Z,12.63
2019-02-16T03:51:07.321Z,13.97
2019-02-16T03:53:35.358Z,12.40
2019-02-16T03:56:03.216Z,10.93
2019-02-16T03:58:31.267Z,12.53
2019-02-16T04:00:59.316Z,12.07
2019-02-16T04:03:27.399Z,15.13
2019-02-16T04:05:55.511Z,12.67
2019-02-16T04:08:23.340Z,15.50
2019-02-16T04:10:51.279Z,13.80
2019-02-16T04:13:20.712Z,11.90
2019-02-16T04:15:48.691Z,11.47
2019-02-16T04:18:18.383Z,13.13
2019-02-16T04:20:46.419Z,13.63
2019-02-16T04:23:14.359Z,10.80
2019-02-16T04:25:42.215Z,13.23
2019-02-16T04:28:10.180Z,14.50
2019-02-16T04:30:38.232Z,11.23
2019-02-16T04:33:05.996Z,14.20
2019-02-16T04:35:34.051Z,10.20
2019-02-16T04:38:01.932Z,15.20
2019-02-16T04:40:29.804Z,13.43
2019-02-16T04:42:57.652Z,11.80
2019-02-16T04:45:25.529Z,11.37
2019-02-16T04:47:53.502Z,13.90
2019-02-16T04:50:21.569Z,14.20
2019-02-16T04:52:49.448Z,12.40
2019-02-16T04:55:17.446Z,14.53
2019-02-16T04:57:45.292Z,12.93
2019-02-16T05:00:13.271Z,10.33
2019-02-16T05:02:41.217Z,11.40
2019-02-16T05:05:28.792Z,11.83
2019-02-16T05:07:56.871Z,13.07
2019-02-16T05:10:24.922Z,11.00
2019-02-16T05:12:52.781Z,11.80
2019-02-16T05:15:20.737Z,10.87
2019-02-16T05:17:48.616Z,11.10
2019-02-16T05:20:16.642Z,13.77
2019-02-16T05:22:45.106Z,12.73
2019-02-16T05:25:13.087Z,12.67
2019-02-16T05:27:41.049Z,11.87
2019-02-16T05:30:08.915Z,13.53
2019-02-16T05:32:36.783Z,12.33
2019-02-16T05:35:05.030Z,12.63
2019-02-16T05:37:33.119Z,12.77
2019-02-16T05:40:01.072Z,10.93
2019-02-16T05:42:28.970Z,12.17
2019-02-16T05:44:56.948Z,12.33
2019-02-16T05:47:24.822Z,13.70
2019-02-16T05:49:52.792Z,11.63
2019-02-16T05:52:20.635Z,11.50
2019-02-16T05:54:48.612Z,10.43
2019-02-16T05:57:16.581Z,12.87
2019-02-16T05:59:44.441Z,10.37
2019-02-16T06:02:12.503Z,11.00
2019-02-16T06:04:40.568Z,12.57
2019-02-16T06:07:08.334Z,10.13
2019-02-16T06:09:36.311Z,13.67
2019-02-16T06:12:04.185Z,11.50
2019-02-16T06:14:32.072Z,12.13
2019-02-16T06:17:00.028Z,11.67
2019-02-16T06:19:27.880Z,11.83
2019-02-16T06:21:55.744Z,10.17
2019-02-16T06:24:23.617Z,13.13
2019-02-16T06:26:51.476Z,11.13
2019-02-16T06:29:19.556Z,7.90
2019-02-16T06:31:47.624Z,9.13
2019-02-16T06:34:15.691Z,11.50
2019-02-16T06:36:43.552Z,9.37
2019-02-16T06:39:11.516Z,10.53
2019-02-16T06:41:39.408Z,11.67
2019-02-16T06:44:07.380Z,12.50
2019-02-16T06:46:35.263Z,14.40
2019-02-16T06:49:03.264Z,15.03
2019-02-16T06:51:31.233Z,12.57
2019-02-16T06:53:59.222Z,11.30
2019-02-16T06:56:40.273Z,13.13
2019-02-16T06:59:08.135Z,11.83
2019-02-16T07:01:35.893Z,10.20
2019-02-16T07:04:03.794Z,12.00
2019-02-16T07:06:31.791Z,10.80
2019-02-16T07:09:00.143Z,10.70
2019-02-16T07:11:28.247Z,11.87
2019-02-16T07:13:56.385Z,11.37
2019-02-16T07:16:49.992Z,9.40
2019-02-16T07:19:24.060Z,9.47
2019-02-16T07:21:51.964Z,11.13
2019-02-16T07:24:19.936Z,12.07
2019-02-16T07:26:48.026Z,10.93
2019-02-16T07:29:15.955Z,8.90
2019-02-16T07:31:43.800Z,12.03
2019-02-16T07:34:11.666Z,9.97
2019-02-16T07:36:39.621Z,9.87
2019-02-16T07:39:07.466Z,9.63
2019-02-16T07:41:35.447Z,11.23
2019-02-16T07:44:22.987Z,11.57
2019-02-16T07:46:58.520Z,11.07
2019-02-16T07:49:46.264Z,11.93
2019-02-16T07:52:33.902Z,9.07
2019-02-16T07:55:06.850Z,11.63
2019-02-16T07:57:44.992Z,9.43
2019-02-16T08:00:26.963Z,12.87
2019-02-16T08:03:14.809Z,8.93
2019-02-16T08:05:50.379Z,10.93
2019-02-16T08:08:47.095Z,10.17
2019-02-16T08:11:24.314Z,7.43
2019-02-16T08:14:02.815Z,11.13
2019-02-16T08:16:45.829Z,10.13
2019-02-16T08:19:33.196Z,9.83
2019-02-16T08:22:06.999Z,9.33
2019-02-16T08:24:46.384Z,9.87
2019-02-16T08:27:40.169Z,7.67
2019-02-16T08:30:27.827Z,9.67
2019-02-16T08:33:18.228Z,8.70
2019-02-16T08:36:05.728Z,9.23
2019-02-16T08:38:52.019Z,9.13
2019-02-16T08:41:28.936Z,9.50
2019-02-16T08:44:06.683Z,9.33
2019-02-16T08:46:54.234Z,8.20
2019-02-16T08:49:36.588Z,6.43
2019-02-16T08:52:39.231Z,7.97
2019-02-16T08:55:30.959Z,9.10
2019-02-16T08:58:10.024Z,10.03
2019-02-16T09:01:00.648Z,9.73
2019-02-16T09:04:00.191Z,9.77
2019-02-16T09:06:47.707Z,8.50
2019-02-16T09:09:33.755Z,8.43
2019-02-16T09:12:27.348Z,11.40
2019-02-16T09:15:21.056Z,9.30
2019-02-16T09:18:14.640Z,8.90
2019-02-16T09:21:14.518Z,9.17
2019-02-16T09:24:00.087Z,9.53
2019-02-16T09:27:05.764Z,8.43
2019-02-16T09:29:53.196Z,9.10
2019-02-16T09:32:35.724Z,8.47
2019-02-16T09:35:26.062Z,10.10
2019-02-16T09:38:16.617Z,10.43
2019-02-16T09:41:02.912Z,9.80
2019-02-16T09:44:08.568Z,10.00
2019-02-16T09:47:01.986Z,8.43
2019-02-16T09:49:52.724Z,9.77
2019-02-16T09:52:38.923Z,9.80
2019-02-16T09:55:26.361Z,8.37
2019-02-16T09:58:20.328Z,11.10
2019-02-16T10:01:01.457Z,8.93
2019-02-16T10:03:55.999Z,9.30
2019-02-16T10:06:46.452Z,9.33
2019-02-16T10:09:37.101Z,10.00
2019-02-16T10:12:33.812Z,11.27
2019-02-16T10:15:19.892Z,9.23
2019-02-16T10:18:06.396Z,7.17
2019-02-16T10:20:58.625Z,10.50
2019-02-16T10:23:48.742Z,9.27
2019-02-16T10:26:29.156Z,9.53
2019-02-16T10:29:07.644Z,9.73
2019-02-16T10:31:54.176Z,10.50
2019-02-16T10:34:44.204Z,8.10
2019-02-16T10:37:34.824Z,7.47
2019-02-16T10:40:28.864Z,8.77
2019-02-16T10:43:07.200Z,8.93
2019-02-16T10:46:03.011Z,9.57
2019-02-16T10:48:40.023Z,11.17
2019-02-16T10:51:28.627Z,8.10
2019-02-16T10:54:03.376Z,8.53
2019-02-16T10:56:43.912Z,9.57
2019-02-16T10:59:46.725Z,8.93
2019-02-16T11:02:34.235Z,8.47
2019-02-16T11:05:17.673Z,8.63
2019-02-16T11:08:11.220Z,8.87
2019-02-16T11:10:47.087Z,9.33
2019-02-16T11:13:40.555Z,8.20
2019-02-16T11:16:38.027Z,10.50
2019-02-16T11:19:16.264Z,8.60
2019-02-16T11:21:50.644Z,7.20
2019-02-16T11:24:41.102Z,7.93
2019-02-16T11:27:27.172Z,12.43
2019-02-16T11:30:20.880Z,10.63
2019-02-16T11:32:59.220Z,10.60
2019-02-16T11:35:56.243Z,10.40
2019-02-16T11:38:43.985Z,11.37
2019-02-16T11:41:30.008Z,11.53
2019-02-16T11:44:32.892Z,11.83
2019-02-16T11:47:29.852Z,10.47
2019-02-16T11:50:07.488Z,10.87
2019-02-16T11:52:53.593Z,12.13
2019-02-16T11:55:44.116Z,10.20
2019-02-16T11:58:27.652Z,13.53
2019-02-16T12:01:05.356Z,10.20
2019-02-16T12:03:49.988Z,11.07
2019-02-16T12:06:37.328Z,12.00
2019-02-16T12:09:27.352Z,13.40
2019-02-16T12:12:30.495Z,11.73
2019-02-16T12:15:16.068Z,13.07
2019-02-16T12:18:09.876Z,11.47
2019-02-16T12:20:46.500Z,12.37
2019-02-16T12:23:38.924Z,12.37
2019-02-16T12:26:16.016Z,11.37
2019-02-16T12:29:04.975Z,14.27
2019-02-16T12:31:41.372Z,12.83
2019-02-16T12:34:38.045Z,13.53
2019-02-16T12:37:16.481Z,11.10
2019-02-16T12:40:16.295Z,12.30
2019-02-16T12:43:12.910Z,13.53
2019-02-16T12:45:58.338Z,13.03
2019-02-16T12:48:35.612Z,12.47
2019-02-16T12:51:24.284Z,13.70
2019-02-16T12:54:18.072Z,13.40
2019-02-16T12:57:00.341Z,14.17
2019-02-16T12:59:47.962Z,11.87
2019-02-16T13:02:31.512Z,13.33
2019-02-16T13:05:31.348Z,12.13
2019-02-16T13:08:20.500Z,11.37
2019-02-16T13:11:14.316Z,14.23
2019-02-16T13:14:17.244Z,12.37
2019-02-16T13:17:04.848Z,12.73
2019-02-16T13:19:44.336Z,15.30
2019-02-16T13:22:19.497Z,16.00
2019-02-16T13:25:07.166Z,14.07
2019-02-16T13:28:00.802Z,14.60
2019-02-16T13:30:41.516Z,12.27
2019-02-16T13:33:17.340Z,16.03
2019-02-16T13:36:03.536Z,14.33
2019-02-16T13:39:00.287Z,12.07
2019-02-16T13:41:59.683Z,13.10
2019-02-16T13:45:02.507Z,12.53
2019-02-16T13:47:59.136Z,12.27
2019-02-16T13:50:40.317Z,13.43
2019-02-16T13:53:45.260Z,12.47
2019-02-16T13:56:30.707Z,13.50
2019-02-16T13:59:24.211Z,12.70
2019-02-16T14:02:08.090Z,12.17
2019-02-16T14:04:42.140Z,11.43
2019-02-16T14:07:24.839Z,14.77
2019-02-16T14:10:12.376Z,13.70
2019-02-16T14:12:52.324Z,12.80
2019-02-16T14:15:29.422Z,14.83
2019-02-16T14:17:58.592Z,14.37
2019-02-16T14:20:27.052Z,13.23
2019-02-16T14:22:55.290Z,12.93
2019-02-16T14:25:45.726Z,12.03
2019-02-16T14:28:13.947Z,10.87
2019-02-16T14:30:42.022Z,11.13
2019-02-16T14:33:10.067Z,12.60
2019-02-16T14:35:38.144Z,12.30
2019-02-16T14:38:21.376Z,13.70
2019-02-16T14:40:49.396Z,12.53
2019-02-16T14:43:17.447Z,10.60
2019-02-16T14:45:45.484Z,12.47
2019-02-16T14:48:13.620Z,12.73
2019-02-16T14:50:41.693Z,11.53
2019-02-16T14:53:09.648Z,12.03
2019-02-16T14:55:37.689Z,14.90
2019-02-16T14:58:05.539Z,10.53
2019-02-16T15:00:33.565Z,16.40
2019-02-16T15:03:01.656Z,13.87
2019-02-16T15:05:29.675Z,12.63
2019-02-16T15:07:58.112Z,15.23
2019-02-16T15:10:26.138Z,13.67
2019-02-16T15:12:54.277Z,16.17
2019-02-16T15:15:22.680Z,11.00
2019-02-16T15:17:50.708Z,15.47
2019-02-16T15:20:19.906Z,12.13
2019-02-16T15:22:49.643Z,11.80
2019-02-16T15:25:19.842Z,11.40
2019-02-16T15:27:47.898Z,10.97
2019-02-16T15:30:16.596Z,10.73
2019-02-16T15:32:46.645Z,15.70
2019-02-16T15:35:14.560Z,14.90
2019-02-16T15:37:42.618Z,15.17
2019-02-16T15:40:10.857Z,16.07
2019-02-16T15:42:38.788Z,19.73
2019-02-16T15:45:09.354Z,20.13
2019-02-16T15:47:37.392Z,19.87
2019-02-16T15:50:06.592Z,19.80
2019-02-16T15:52:34.816Z,19.93
2019-02-16T15:55:02.871Z,20.17
2019-02-16T15:57:31.261Z,21.20
2019-02-16T16:00:00.708Z,19.73
2019-02-16T16:02:28.843Z,21.47
2019-02-16T16:04:56.902Z,23.90
2019-02-16T16:07:25.008Z,24.40
2019-02-16T16:10:06.184Z,22.23
2019-02-16T16:12:56.802Z,25.33
2019-02-16T16:15:50.381Z,26.57
2019-02-16T16:18:40.716Z,26.60
2019-02-16T16:21:25.275Z,28.17
2019-02-16T16:24:15.756Z,25.23
2019-02-16T16:27:03.187Z,23.00
2019-02-16T16:29:48.501Z,24.60
2019-02-16T16:32:35.163Z,25.17
2019-02-16T16:35:40.928Z,22.23
2019-02-16T16:38:34.664Z,24.73
2019-02-16T16:41:40.631Z,27.10
2019-02-16T16:44:27.200Z,23.13
2019-02-16T16:47:12.476Z,22.30
2019-02-16T16:50:06.052Z,27.37
2019-02-16T16:52:40.585Z,20.93
2019-02-16T16:55:30.864Z,25.13
2019-02-16T16:58:06.654Z,27.03
2019-02-16T17:01:00.419Z,29.17
2019-02-16T17:03:56.808Z,23.20
2019-02-16T17:06:43.692Z,26.33
2019-02-16T17:09:30.122Z,27.53
2019-02-16T17:12:34.789Z,31.43
2019-02-16T17:15:34.246Z,25.67
2019-02-16T17:18:21.047Z,28.47
2019-02-16T17:21:08.504Z,28.07
2019-02-16T17:24:05.258Z,29.33
2019-02-16T17:26:41.864Z,28.03
2019-02-16T17:29:24.175Z,32.20
2019-02-16T17:32:10.576Z,27.77
2019-02-16T17:35:08.620Z,29.87
2019-02-16T17:37:50.613Z,33.30
2019-02-16T17:40:36.980Z,25.80
2019-02-16T17:43:13.810Z,29.47
2019-02-16T17:45:55.004Z,28.30
2019-02-16T17:48:48.475Z,27.77
2019-02-16T17:51:40.531Z,26.93
2019-02-16T17:54:37.186Z,31.47
2019-02-16T17:57:23.516Z,32.57
2019-02-16T18:00:17.203Z,30.90
2019-02-16T18:03:23.320Z,31.83
2019-02-16T18:06:17.252Z,31.83
2019-02-16T18:09:03.588Z,31.63
2019-02-16T18:11:39.888Z,27.07
2019-02-16T18:14:26.063Z,29.60
2019-02-16T18:17:28.994Z,28.17
2019-02-16T18:20:10.015Z,31.97
2019-02-16T18:23:03.803Z,28.87
2019-02-16T18:25:39.817Z,32.10
2019-02-16T18:28:19.146Z,30.83
2019-02-16T18:31:12.818Z,32.07
2019-02-16T18:34:06.532Z,29.27
2019-02-16T18:36:57.976Z,30.10
2019-02-16T18:39:37.465Z,32.30
2019-02-16T18:42:23.786Z,38.63
2019-02-16T18:45:14.587Z,33.27
2019-02-16T18:48:02.924Z,34.90
2019-02-16T18:50:45.991Z,31.00
2019-02-16T18:53:45.244Z,34.13
2019-02-16T18:56:35.943Z,27.97
2019-02-16T18:59:11.969Z,37.33
2019-02-16T19:01:58.448Z,31.30
2019-02-16T19:04:47.276Z,34.03
2019-02-16T19:07:44.201Z,33.47
2019-02-16T19:10:17.935Z,34.77
2019-02-16T19:13:04.027Z,35.80
2019-02-16T19:15:44.167Z,29.67
2019-02-16T19:18:27.980Z,29.43
2019-02-16T19:21:24.592Z,37.30
2019-02-16T19:24:11.020Z,33.00
2019-02-16T19:26:53.365Z,31.83
2019-02-16T19:29:34.556Z,34.77
2019-02-16T19:32:40.362Z,34.53
2019-02-16T19:35:23.120Z,32.17
2019-02-16T19:38:03.132Z,34.53
2019-02-16T19:40:43.696Z,34.30
2019-02-16T19:43:20.719Z,33.87
2019-02-16T19:46:14.248Z,31.83
2019-02-16T19:49:13.976Z,40.17
2019-02-16T19:52:03.244Z,34.87
2019-02-16T19:55:08.756Z,33.37
2019-02-16T19:58:05.561Z,35.13
2019-02-16T20:01:11.307Z,34.47
2019-02-16T20:03:51.220Z,38.00
2019-02-16T20:06:39.868Z,32.93
2019-02-16T20:09:42.578Z,38.10
2019-02-16T20:12:28.748Z,34.83
2019-02-16T20:15:19.148Z,34.03
2019-02-16T20:18:05.348Z,36.83
2019-02-16T20:20:55.956Z,38.20
2019-02-16T20:23:47.541Z,34.40
2019-02-16T20:26:28.740Z,38.10
2019-02-16T20:29:19.279Z,39.10
2019-02-16T20:32:05.727Z,45.03
2019-02-16T20:34:52.096Z,34.80
2019-02-16T20:37:33.857Z,39.50
2019-02-16T20:40:12.960Z,37.07
2019-02-16T20:43:00.627Z,34.67
2019-02-16T20:45:46.449Z,39.80
2019-02-16T20:48:22.768Z,40.60
2019-02-16T20:51:11.276Z,38.30
2019-02-16T20:53:59.660Z,38.80
2019-02-16T20:56:45.268Z,39.80
2019-02-16T20:59:43.953Z,43.40
2019-02-16T21:02:31.198Z,36.17
2019-02-16T21:05:34.024Z,35.43
2019-02-16T21:08:20.288Z,40.03
2019-02-16T21:11:13.820Z,40.73
2019-02-16T21:14:01.384Z,38.37
2019-02-16T21:16:52.124Z,36.90
2019-02-16T21:19:30.441Z,42.20
2019-02-16T21:22:24.202Z,42.80
2019-02-16T21:25:14.236Z,40.90
2019-02-16T21:27:57.427Z,36.47
2019-02-16T21:30:36.125Z,34.53
2019-02-16T21:33:16.660Z,37.93
2019-02-16T21:36:10.191Z,36.00
2019-02-16T21:38:51.473Z,37.47
2019-02-16T21:41:25.697Z,38.27
2019-02-16T21:44:13.869Z,40.23
2019-02-16T21:46:53.589Z,33.23
2019-02-16T21:49:44.299Z,39.33
2019-02-16T21:52:34.884Z,35.30
2019-02-16T21:55:23.408Z,32.57
2019-02-16T21:58:20.520Z,37.60
2019-02-16T22:01:07.296Z,37.80
2019-02-16T22:03:53.627Z,31.40
2019-02-16T22:06:47.142Z,43.97
2019-02-16T22:09:37.548Z,36.97
2019-02-16T22:12:37.340Z,36.23
2019-02-16T22:15:06.207Z,37.43
2019-02-16T22:17:34.268Z,34.97
2019-02-16T22:20:02.233Z,34.73
2019-02-16T22:22:32.594Z,35.90
2019-02-16T22:25:00.438Z,37.80
2019-02-16T22:27:28.628Z,35.90
2019-02-16T22:29:56.606Z,31.83
2019-02-16T22:32:24.624Z,32.97
2019-02-16T22:34:52.652Z,36.33
2019-02-16T22:37:20.625Z,33.77
2019-02-16T22:39:48.560Z,36.97
2019-02-16T22:42:17.963Z,39.13
2019-02-16T22:44:46.343Z,31.57
2019-02-16T22:47:14.479Z,32.07
2019-02-16T22:49:42.428Z,31.30
2019-02-16T22:52:13.291Z,28.80
2019-02-16T22:54:41.351Z,32.20
2019-02-16T22:57:09.412Z,33.27
2019-02-16T22:59:37.482Z,28.43
2019-02-16T23:02:05.658Z,34.07
2019-02-16T23:04:33.704Z,31.03
2019-02-16T23:07:01.924Z,30.17
2019-02-16T23:09:33.212Z,28.40
2019-02-16T23:12:01.155Z,31.23
2019-02-16T23:14:29.913Z,32.13
2019-02-16T23:16:57.947Z,24.97
2019-02-16T23:19:25.995Z,34.17
2019-02-16T23:21:54.031Z,27.10
2019-02-16T23:24:21.984Z,31.10
2019-02-16T23:26:52.574Z,24.30
2019-02-16T23:29:20.740Z,28.97
2019-02-16T23:31:48.683Z,28.90
2019-02-16T23:34:16.723Z,31.77
2019-02-16T23:36:44.694Z,23.47
2019-02-16T23:39:12.921Z,30.43
2019-02-16T23:41:41.050Z,30.27
2019-02-16T23:44:09.180Z,29.37
2019-02-16T23:46:37.231Z,26.20
2019-02-16T23:49:05.260Z,26.50
2019-02-16T23:51:33.392Z,26.63
2019-02-16T23:54:01.414Z,28.50
2019-02-16T23:56:32.328Z,27.17
2019-02-16T23:59:00.359Z,26.23
